Flight Track Log - Related Links

Times and Time Zones

All times are in EDT time to prevent confusion due to time zone crossing. See the N662US flight status page for this flight to view local times or setup timezone preferences in your user account.

Time Position Orientation Groundspeed Altitude Reporting Facility
EDT Latitude Longitude Course Direction KTS MPH feet Rate Location/Type
Sun 07:28:04 PM 47.3520 -122.3110 182° South 232 267 2,500  Level FlightAware ADS-B
Sun 07:28:29 PM 47.3220 -122.3200 191° South 260 299 3,000 1,429 Climbing FlightAware ADS-B
Sun 07:28:46 PM 47.3040 -122.3410 218° Southwest 281 323 3,500 2,000 Climbing FlightAware ADS-B
Sun 07:28:56 PM 47.2970 -122.3560 235° Southwest 284 327 3,900 2,786 Climbing FlightAware ADS-B
Sun 07:29:14 PM 47.2920 -122.3890 257° West 284 327 4,800 2,800 Climbing FlightAware ADS-B
Sun 07:29:41 PM 47.3010 -122.4400 285° West 294 338 6,000 1,895 Climbing FlightAware ADS-B
Sun 07:30:11 PM 47.3230 -122.4880 304° West 305 351 6,600 840 Climbing FlightAware ADS-B
Sun 07:30:31 PM 47.3410 -122.5190 311° West 306 352 6,700 1,091 Climbing FlightAware ADS-B
Sun 07:31:06 PM 47.3800 -122.5740 316° Northwest 317 365 7,600 2,031 Climbing FlightAware ADS-B
Sun 07:31:36 PM 47.4140 -122.6160 320° Northwest 324 373 8,900 2,291 Climbing FlightAware ADS-B
Sun 07:32:01 PM 47.4420 -122.6520 319° Northwest 333 383 9,700 1,938 Climbing FlightAware ADS-B
Sun 07:32:41 PM 47.4920 -122.7160 319° Northwest 358 412 11,000 1,950 Climbing FlightAware ADS-B
Sun 07:33:21 PM 47.5420 -122.7840 317° Northwest 377 434 12,300 1,835 Climbing FlightAware ADS-B
Sun 07:34:06 PM 47.6010 -122.8590 319° Northwest 401 461 13,600 1,835 Climbing FlightAware ADS-B
Sun 07:34:46 PM 47.6530 -122.9340 316° Northwest 407 468 14,900 1,964 Climbing FlightAware ADS-B
Sun 07:35:01 PM 47.6620 -122.9700 290° West 400 460 15,400 1,915 Climbing FlightAware ADS-B
Sun 07:35:33 PM 47.6870 -123.0620 292° West 421 484 16,400 1,703 Climbing FlightAware ADS-B
Sun 07:36:15 PM 47.7390 -123.1560 309° West 442 509 17,500 1,610 Climbing FlightAware ADS-B
Sun 07:36:55 PM 47.7910 -123.2600 307° West 453 521 18,600 1,714 Climbing FlightAware ADS-B
Sun 07:37:39 PM 47.8390 -123.3750 302° West 461 531 19,900 1,756 Climbing FlightAware ADS-B
Sun 07:38:17 PM 47.8820 -123.4810 301° West 466 536 21,000 1,683 Climbing FlightAware ADS-B
Sun 07:39:01 PM 47.9280 -123.6030 299° West 472 543 22,200 1,674 Climbing FlightAware ADS-B
Sun 07:39:43 PM 47.9730 -123.7260 299° West 476 548 23,400 1,605 Climbing FlightAware ADS-B
Sun 07:40:27 PM 48.0190 -123.8510 299° West 481 554 24,500 1,429 Climbing FlightAware ADS-B
Sun 07:41:07 PM 48.0750 -123.9570 308° West 496 571 25,400 1,077 Climbing FlightAware ADS-B
Sun 07:41:45 PM 48.1240 -124.0340 314° West 503 579 25,900 1,059 Climbing FlightAware ADS-B
Sun 07:42:32 PM 48.2100 -124.1740 313° West 512 589 26,900 1,133 Climbing FlightAware ADS-B
Sun 07:43:15 PM 48.2790 -124.2940 311° West 521 600 27,600 988 Climbing FlightAware ADS-B
Sun 07:43:57 PM 48.3440 -124.4070 311° West 528 608 28,300 1,171 Climbing FlightAware ADS-B
Sun 07:44:37 PM 48.4080 -124.5190 311° West 529 609 29,200 1,244 Climbing FlightAware ADS-B
Sun 07:45:19 PM 48.4770 -124.6340 312° West 531 611 30,000 1,116 Climbing FlightAware ADS-B
Sun 07:46:03 PM 48.5500 -124.7550 312° West 533 613 30,800 1,000 Climbing FlightAware ADS-B
Sun 07:46:43 PM 48.6150 -124.8660 312° West 536 617 31,400 878 Climbing FlightAware ADS-B
Sun 07:47:25 PM 48.6850 -124.9830 312° West 533 613 32,000 419 Climbing FlightAware ADS-B
Sun 07:48:09 PM 48.7580 -125.1080 312° West 531 611 32,000  Level FlightAware ADS-B
Sun 07:48:49 PM 48.8220 -125.2160 312° West 529 609 32,000  Level FlightAware ADS-B
Sun 07:49:25 PM 48.8790 -125.3130 312° West 527 606 32,000  Level FlightAware ADS-B
Sun 07:50:06 PM 48.9420 -125.4200 312° West 523 602 32,000  Level FlightAware ADS-B
Sun 07:50:51 PM 49.0150 -125.5470 311° West 522 601 32,000  Level FlightAware ADS-B
Sun 07:51:31 PM 49.0810 -125.6600 312° West 523 602 32,000  Level FlightAware ADS-B
Sun 07:52:33 PM 49.1800 -125.8320 311° West 524 603 32,000  Level FlightAware ADS-B
Sun 07:53:15 PM 49.2470 -125.9490 311° West 524 603 32,000  Level FlightAware ADS-B
Sun 07:53:57 PM 49.3150 -126.0690 311° West 523 602 32,000  Level FlightAware ADS-B
Sun 07:54:35 PM 49.3750 -126.1750 311° West 526 605 32,000  Level FlightAware ADS-B
Sun 07:55:21 PM 49.4500 -126.3080 311° West 527 606 32,000  Level FlightAware ADS-B
Sun 07:56:03 PM 49.5160 -126.4240 311° West 527 606 32,000  Level FlightAware ADS-B
Sun 07:56:45 PM 49.5820 -126.5440 310° West 526 605 32,000  Level FlightAware ADS-B
Sun 07:57:27 PM 49.6480 -126.6610 311° West 527 606 32,000  Level FlightAware ADS-B
Sun 07:58:11 PM 49.7190 -126.7890 311° West 527 606 32,000  Level FlightAware ADS-B
Sun 07:58:48 PM 49.7730 -126.8860 311° West 527 606 32,000  Level FlightAware ADS-B
Sun 07:59:46 PM 49.8680 -127.0620 310° West 529 609 32,000  Level FlightAware ADS-B
Sun 08:00:29 PM 49.9370 -127.1860 311° West 528 608 32,000  Level FlightAware ADS-B
Sun 08:01:13 PM 50.0050 -127.3130 310° West 528 608 32,000  Level FlightAware ADS-B
Sun 08:01:56 PM 50.0730 -127.4380 310° West 529 609 32,000  Level FlightAware ADS-B
Sun 08:02:33 PM 50.1190 -127.5230 310° West 529 609 32,000  Level FlightAware ADS-B
Sun 08:03:16 PM 50.1930 -127.6600 310° West 531 611 32,000  Level FlightAware ADS-B
Sun 08:03:56 PM 50.2600 -127.7870 310° West 533 613 32,000  Level FlightAware ADS-B
Sun 08:04:56 PM 50.3560 -127.9680 310° West 538 619 32,000  Level FlightAware ADS-B
Sun 08:05:31 PM 50.4040 -128.0580 310° West 541 623 32,000  Level FlightAware ADS-B
Sun 08:06:12 PM 50.4720 -128.1880 309° West 542 624 32,000  Level FlightAware ADS-B
Sun 08:07:08 PM 50.5570 -128.3480 310° West 542 624 32,000  Level FlightAware ADS-B
Sun 08:07:58 PM 50.6250 -128.4770 310° West 542 624 32,000  Level FlightAware ADS-B
Sun 08:08:34 PM 50.6740 -128.5690 310° West 542 624 32,000  Level FlightAware ADS-B
Sun 08:09:20 PM 50.7370 -128.6880 310° West 542 624 32,000  Level FlightAware ADS-B
Sun 08:09:56 PM 50.7870 -128.7810 310° West 542 624 32,000  Level FlightAware ADS-B
Sun 08:10:44 PM 50.8520 -128.9050 310° West 542 624 32,000  Level FlightAware ADS-B
Sun 08:11:33 PM 50.9200 -129.0320 310° West 542 624 32,000  Level FlightAware ADS-B
Sun 08:12:22 PM 50.9870 -129.1590 310° West 542 624 32,000  Level FlightAware ADS-B
Sun 08:12:57 PM 51.0350 -129.2500 310° West 542 624 32,000  Level FlightAware ADS-B
Sun 08:13:46 PM 51.1020 -129.3770 310° West 542 624 32,000  Level FlightAware ADS-B
Sun 08:14:22 PM 51.1510 -129.4710 310° West 542 624 32,000  Level FlightAware ADS-B
Sun 08:15:10 PM 51.2170 -129.5960 310° West 542 624 32,000  Level FlightAware ADS-B
Sun 08:15:46 PM 51.2660 -129.6900 310° West 542 624 32,000  Level FlightAware ADS-B
Sun 08:16:24 PM 51.3180 -129.7890 310° West 542 624 32,000  Level FlightAware ADS-B
Sun 08:17:00 PM 51.4667 -130.2167 310° West 540 621 32,000  Level Vancouver Center
Sun 08:18:00 PM 51.5667 -130.4167 309° West 540 621 32,000  Level Vancouver Center
Sun 08:19:00 PM 51.6500 -130.5833 309° West 530 610 32,000  Level Vancouver Center
Sun 08:20:00 PM 51.7333 -130.7833 304° West 530 610 32,000  Level Vancouver Center
Sun 08:21:00 PM 51.8333 -130.9667 311° West 530 610 32,000  Level Vancouver Center
Sun 08:22:00 PM 51.9167 -131.1667 304° West 530 610 32,000  Level Vancouver Center
Sun 08:23:01 PM 52.0167 -131.3167 317° Northwest 540 621 32,000  Level Anchorage Center
Sun 08:24:02 PM 52.1000 -131.5167 304° West 540 621 32,000  Level Anchorage Center
Sun 08:25:02 PM 52.2000 -131.7167 309° West 530 610 32,000 500 Level Anchorage Center
Sun 08:26:02 PM 52.2833 -131.9000 307° West 540 621 33,000 992 Climbing Anchorage Center
Sun 08:27:03 PM 52.3667 -132.1000 304° West 530 610 34,000 496 Climbing Anchorage Center
Sun 08:28:03 PM 52.4500 -132.2833 307° West 530 610 34,000  Level Anchorage Center
Sun 08:29:03 PM 52.5500 -132.5000 307° West 530 610 34,000  Level Anchorage Center
Sun 08:30:03 PM 52.6333 -132.6833 307° West 530 610 34,000  Level Anchorage Center
Sun 08:31:03 PM 52.7167 -132.8833 305° West 530 610 34,000  Level Anchorage Center
Sun 08:32:04 PM 52.8000 -133.0833 305° West 530 610 34,000  Level Anchorage Center
Sun 08:33:04 PM 52.8833 -133.2833 305° West 530 610 34,000  Level Anchorage Center
Sun 08:34:04 PM 52.9667 -133.4667 307° West 520 598 34,000  Level Anchorage Center
Sun 08:35:05 PM 53.0500 -133.6833 303° West 520 598 34,000  Level Anchorage Center
Sun 08:36:05 PM 53.1333 -133.8667 307° West 520 598 34,000  Level Anchorage Center
Sun 08:37:00 PM 53.2167 -134.1000 301° West 520 598 34,000  Level Vancouver Center
Sun 08:38:00 PM 53.2833 -134.2833 301° West 520 598 34,000  Level Vancouver Center
Sun 08:39:00 PM 53.3833 -134.5167 306° West 520 598 34,000  Level Vancouver Center
Sun 08:40:00 PM 53.4500 -134.7000 301° West 510 587 34,000  Level Vancouver Center
Sun 08:41:00 PM 53.5333 -134.8833 307° West 510 587 34,000  Level Vancouver Center
Sun 08:42:07 PM 53.6333 -135.0667 313° West 510 587 34,000  Level Anchorage Center
Sun 08:43:08 PM 53.7000 -135.2500 302° West 510 587 34,000  Level Anchorage Center
Sun 08:44:08 PM 53.7833 -135.4667 303° West 510 587 34,000  Level Anchorage Center
Sun 08:45:08 PM 53.8667 -135.6500 308° West 510 587 34,000  Level Anchorage Center
Sun 08:46:09 PM 53.9333 -135.8667 298° West 510 587 34,000  Level Anchorage Center
Sun 08:47:09 PM 54.0167 -136.0500 308° West 510 587 34,000  Level Anchorage Center
Sun 08:48:00 PM 54.0667 -136.3167 288° West 510 587 34,000  Level Vancouver Center
Sun 08:49:10 PM 54.1500 -136.4833 311° West 510 587 34,000  Level Anchorage Center
Sun 08:50:10 PM 54.2000 -136.6667 295° West 510 587 34,000  Level Anchorage Center
Sun 08:51:11 PM 54.2667 -136.8833 298° West 510 587 34,000  Level Anchorage Center
Sun 08:52:00 PM 54.3500 -137.1667 297° West 510 587 34,000  Level Vancouver Center
Sun 08:53:11 PM 54.4000 -137.3167 300° West 510 587 34,000  Level Anchorage Center
Sun 08:54:12 PM 54.4667 -137.5333 298° West 510 587 34,000  Level Anchorage Center
Sun 08:55:12 PM 54.5333 -137.7500 298° West 520 598 34,000  Level Anchorage Center
Sun 08:56:12 PM 54.6000 -137.9500 300° West 500 575 34,000  Level Anchorage Center
Sun 08:57:12 PM 54.6667 -138.1833 296° West 520 598 34,000  Level Anchorage Center
Sun 08:58:00 PM 54.7167 -138.4500 288° West 530 610 34,000  Level Vancouver Center
Sun 08:59:13 PM 54.8000 -138.6500 306° West 540 621 34,000  Level Anchorage Center
Sun 09:00:00 PM 54.8500 -138.9167 288° West 530 610 34,000  Level Vancouver Center
Sun 09:01:00 PM 54.9167 -139.1500 297° West 540 621 34,000  Level Vancouver Center
Sun 09:02:14 PM 55.0167 -139.3833 307° West 540 621 34,000  Level Anchorage Center
Sun 09:03:14 PM 55.0833 -139.6333 295° West 560 644 34,000  Level Anchorage Center
Sun 09:04:00 PM 55.1167 -139.8500 285° West 560 644 34,000  Level Vancouver Center
Sun 09:04:15 PM 55.1500 -139.8667 344° North 540 621 34,000  Level Anchorage Center
Sun 09:05:15 PM 55.2167 -140.1167 295° West 540 621 34,000  Level Anchorage Center
Sun 09:06:15 PM 55.2833 -140.3667 295° West 560 644 34,000  Level Anchorage Center
Sun 09:07:16 PM 55.3500 -140.6000 297° West 540 621 34,000  Level Anchorage Center
Sun 09:08:16 PM 55.4167 -140.8500 295° West 540 621 34,000  Level Anchorage Center
Sun 09:09:17 PM 55.4833 -141.1000 295° West 540 621 34,000  Level Anchorage Center
Sun 09:10:17 PM 55.5500 -141.3333 297° West 550 633 34,000  Level Anchorage Center
Sun 09:11:17 PM 55.6000 -141.5833 290° West 550 633 34,000  Level Anchorage Center
Sun 09:12:18 PM 55.6667 -141.8333 295° West 550 633 34,000  Level Anchorage Center
Sun 09:13:18 PM 55.7333 -142.0833 295° West 550 633 34,000  Level Anchorage Center
Sun 09:14:18 PM 55.7833 -142.2833 294° West 540 621 34,000  Level Anchorage Center
Sun 09:15:19 PM 55.8500 -142.5333 295° West 530 610 34,000  Level Anchorage Center
Sun 09:16:19 PM 55.9000 -142.7833 290° West 540 621 34,000  Level Anchorage Center
Sun 09:17:19 PM 55.9667 -143.0333 296° West 550 633 34,000  Level Anchorage Center
Sun 09:18:20 PM 56.0333 -143.3500 291° West 560 644 34,000  Level Anchorage Center
Sun 09:19:20 PM 56.0833 -143.6000 290° West 560 644 34,000  Level Anchorage Center
Sun 09:20:20 PM 56.1333 -143.7833 296° West 530 610 34,000  Level Anchorage Center
Sun 09:21:20 PM 56.2000 -144.0833 292° West 540 621 34,000  Level Anchorage Center
Sun 09:22:21 PM 56.2667 -144.3500 294° West 540 621 34,000  Level Anchorage Center
Sun 09:23:21 PM 56.3167 -144.6000 290° West 540 621 34,000  Level Anchorage Center
Sun 09:24:21 PM 56.3667 -144.8500 290° West 550 633 34,000  Level Anchorage Center
Sun 09:25:22 PM 56.4333 -145.1000 296° West 540 621 34,000  Level Anchorage Center
Sun 09:26:22 PM 56.4833 -145.3667 289° West 540 621 34,000  Level Anchorage Center
Sun 09:27:22 PM 56.5333 -145.6333 289° West 550 633 34,000  Level Anchorage Center
Sun 09:28:23 PM 56.6000 -145.8833 296° West 550 633 34,000  Level Anchorage Center
Sun 09:29:23 PM 56.6500 -146.1500 289° West 550 633 34,000  Level Anchorage Center
Sun 09:30:23 PM 56.7000 -146.4000 290° West 540 621 34,000  Level Anchorage Center
Sun 09:31:24 PM 56.7500 -146.6667 289° West 540 621 34,000  Level Anchorage Center
Sun 09:32:24 PM 56.8000 -146.9167 290° West 540 621 34,000  Level Anchorage Center
Sun 09:33:24 PM 56.8667 -147.2000 293° West 560 644 34,000  Level Anchorage Center
Sun 09:34:25 PM 56.9167 -147.4500 290° West 550 633 34,000  Level Anchorage Center
Sun 09:35:25 PM 56.9667 -147.7167 289° West 540 621 34,000  Level Anchorage Center
Sun 09:36:25 PM 57.0167 -147.9833 289° West 550 633 34,000  Level Anchorage Center
Sun 09:37:26 PM 57.0667 -148.2500 289° West 550 633 34,000  Level Anchorage Center
Sun 09:38:26 PM 57.1167 -148.5167 289° West 540 621 34,000  Level Anchorage Center
Sun 09:39:27 PM 57.1667 -148.7833 289° West 550 633 34,000  Level Anchorage Center
Sun 09:40:27 PM 57.2000 -149.0500 283° West 540 621 34,000  Level Anchorage Center
Sun 09:41:27 PM 57.2500 -149.3333 288° West 540 621 34,000  Level Anchorage Center
Sun 09:42:28 PM 57.3000 -149.6000 289° West 540 621 34,000  Level Anchorage Center
Sun 09:43:28 PM 57.3500 -149.8667 289° West 550 633 34,000  Level Anchorage Center
Sun 09:44:28 PM 57.4000 -150.1333 289° West 540 621 34,000  Level Anchorage Center
Sun 09:45:29 PM 57.4333 -150.4167 282° West 550 633 34,000  Level Anchorage Center
Sun 09:46:29 PM 57.4667 -150.7000 282° West 540 621 34,000  Level Anchorage Center
Sun 09:47:29 PM 57.5000 -150.9667 283° West 540 621 34,000  Level Anchorage Center
Sun 09:48:30 PM 57.5167 -151.2500 276° West 540 621 34,000  Level Anchorage Center
Sun 09:49:30 PM 57.5500 -151.5333 282° West 550 633 34,000  Level Anchorage Center
Sun 09:50:30 PM 57.5667 -151.8167 276° West 550 633 34,000  Level Anchorage Center
Sun 09:51:30 PM 57.6000 -152.1000 282° West 550 633 34,000  Level Anchorage Center
Sun 09:52:31 PM 57.6167 -152.3833 276° West 550 633 34,000  Level Anchorage Center
Sun 09:53:31 PM 57.6500 -152.6667 283° West 540 621 34,000  Level Anchorage Center
Sun 09:54:31 PM 57.6667 -152.9500 276° West 550 633 34,000  Level Anchorage Center
Sun 09:55:32 PM 57.6833 -153.2500 276° West 550 633 34,000  Level Anchorage Center
Sun 09:56:32 PM 57.7000 -153.5333 276° West 560 644 34,000  Level Anchorage Center
Sun 09:57:32 PM 57.7333 -153.8167 283° West 550 633 34,000  Level Anchorage Center
Sun 09:58:33 PM 57.7500 -154.1000 276° West 550 633 34,000  Level Anchorage Center
Sun 09:59:33 PM 57.7667 -154.3833 276° West 560 644 34,000  Level Anchorage Center
Sun 10:00:33 PM 57.7833 -154.6667 276° West 560 644 34,000  Level Anchorage Center
Sun 10:01:34 PM 57.8000 -154.9667 276° West 550 633 34,000  Level Anchorage Center
Sun 10:02:34 PM 57.8167 -155.2667 276° West 550 633 34,000  Level Anchorage Center
Sun 10:03:35 PM 57.8333 -155.5500 276° West 560 644 34,000  Level Anchorage Center
Sun 10:04:35 PM 57.8500 -155.8500 276° West 550 633 34,000  Level Anchorage Center
Sun 10:05:35 PM 57.8667 -156.1500 276° West 550 633 34,000  Level Anchorage Center
Sun 10:06:36 PM 57.8667 -156.4333 270° West 550 633 34,000  Level Anchorage Center
Sun 10:07:36 PM 57.8833 -156.7167 276° West 540 621 34,000  Level Anchorage Center
Sun 10:08:36 PM 57.9000 -157.0167 276° West 550 633 34,000  Level Anchorage Center
Sun 10:09:37 PM 57.9167 -157.3000 276° West 540 621 34,000  Level Anchorage Center
Sun 10:10:37 PM 57.9333 -157.5833 276° West 540 621 34,000  Level Anchorage Center
Sun 10:11:37 PM 57.9333 -157.8667 270° West 550 633 34,000  Level Anchorage Center
Sun 10:12:38 PM 57.9500 -158.1667 276° West 540 621 34,000  Level Anchorage Center
Sun 10:13:38 PM 57.9500 -158.4500 270° West 540 621 34,000  Level Anchorage Center
Sun 10:14:38 PM 57.9667 -158.7333 276° West 550 633 34,000  Level Anchorage Center
Sun 10:15:39 PM 57.9667 -159.0333 270° West 550 633 34,000  Level Anchorage Center
Sun 10:16:39 PM 57.9833 -159.3167 276° West 540 621 34,000  Level Anchorage Center
Sun 10:17:39 PM 57.9833 -159.6000 270° West 550 633 34,000  Level Anchorage Center
Sun 10:18:40 PM 58.0000 -159.9000 276° West 550 633 34,000  Level Anchorage Center
Sun 10:19:40 PM 58.0000 -160.1833 270° West 550 633 34,000  Level Anchorage Center
Sun 10:20:41 PM 58.0000 -160.4667 270° West 540 621 34,000  Level Anchorage Center
Sun 10:21:41 PM 58.0167 -160.7500 276° West 540 621 34,000  Level Anchorage Center
Sun 10:22:41 PM 58.0167 -161.0500 270° West 540 621 34,000  Level Anchorage Center
Sun 10:23:42 PM 58.0333 -161.3333 276° West 540 621 34,000  Level Anchorage Center
Sun 10:24:42 PM 58.0333 -161.6167 270° West 540 621 34,000  Level Anchorage Center
Sun 10:25:42 PM 58.0333 -161.9000 270° West 540 621 34,000  Level Anchorage Center
Sun 10:26:42 PM 58.0500 -162.1833 276° West 520 598 34,000  Level Anchorage Center
Sun 10:27:43 PM 58.0500 -162.4667 270° West 530 610 34,000  Level Anchorage Center
Sun 10:28:43 PM 58.0500 -162.7500 270° West 530 610 34,000  Level Anchorage Center
Sun 10:29:43 PM 58.0500 -163.0333 270° West 520 598 34,000  Level Anchorage Center
Sun 10:30:44 PM 58.0500 -163.3000 270° West 510 587 34,000  Level Anchorage Center
Sun 10:31:44 PM 58.0500 -163.5667 270° West 500 575 34,000  Level Anchorage Center
Sun 10:32:44 PM 58.0500 -163.8500 270° West 510 587 34,000  Level Anchorage Center
Sun 10:33:45 PM 58.0500 -164.1000 270° West 500 575 34,000  Level Anchorage Center
Sun 10:34:46 PM 58.0500 -164.3833 270° West 510 587 34,000  Level Anchorage Center
Sun 10:35:45 PM 58.0500 -164.6500 270° West 500 575 34,000  Level Anchorage Center
Sun 10:36:45 PM 58.0500 -164.9167 270° West 500 575 34,000  Level Anchorage Center
Sun 10:37:46 PM 58.0500 -165.1833 270° West 510 587 34,000  Level Anchorage Center
Sun 10:38:45 PM 58.0500 -165.4500 270° West 510 587 34,000  Level Anchorage Center
Sun 10:39:46 PM 58.0500 -165.7167 270° West 510 587 34,000  Level Anchorage Center
Sun 10:40:45 PM 58.0333 -166.0000 264° West 510 587 34,000  Level Anchorage Center
Sun 10:41:45 PM 58.0333 -166.2667 270° West 510 587 34,000  Level Anchorage Center
Sun 10:42:46 PM 58.0333 -166.5333 270° West 510 587 34,000  Level Anchorage Center
Sun 10:43:46 PM 58.0167 -166.7667 262° West 500 575 34,000  Level Anchorage Center
Sun 10:44:46 PM 58.0167 -167.0333 270° West 500 575 34,000  Level Anchorage Center
Sun 10:45:46 PM 58.0000 -167.3000 263° West 510 587 34,000  Level Anchorage Center
Sun 10:46:46 PM 58.0000 -167.5667 270° West 520 598 34,000  Level Anchorage Center
Sun 10:47:46 PM 57.9833 -167.8500 264° West 520 598 34,000  Level Anchorage Center
Sun 10:48:46 PM 57.9833 -168.1167 270° West 530 610 34,000  Level Anchorage Center
Sun 10:49:46 PM 57.9667 -168.4000 264° West 520 598 34,000  Level Anchorage Center
Sun 10:50:46 PM 57.9667 -168.6667 270° West 520 598 34,000  Level Anchorage Center
Sun 10:51:46 PM 57.9500 -168.9500 264° West 520 598 34,000  Level Anchorage Center
Sun 10:52:46 PM 57.9333 -169.2167 263° West 520 598 34,000  Level Anchorage Center
Sun 10:53:46 PM 57.9167 -169.5000 264° West 530 610 34,000  Level Anchorage Center
Sun 10:54:46 PM 57.9167 -169.7667 270° West 520 598 34,000 347 Level Anchorage Center
Sun 10:55:47 PM 57.9000 -170.0500 264° West 530 610 34,700 800 Climbing Anchorage Center
Sun 10:56:46 PM 57.8833 -170.3333 264° West 530 610 35,600 655 Climbing Anchorage Center
Sun 10:57:46 PM 57.8667 -170.6500 264° West 520 598 36,000 200 Climbing Anchorage Center
Sun 10:58:46 PM 57.8500 -170.9167 263° West 510 587 36,000  Level Anchorage Center
Sun 10:59:47 PM 57.8333 -171.2000 264° West 520 598 36,000  Level Anchorage Center
Sun 11:00:47 PM 57.8167 -171.4667 263° West 510 587 36,000  Level Anchorage Center
Sun 11:01:47 PM 57.8000 -171.7333 263° West 520 598 36,000  Level Anchorage Center
Sun 11:02:47 PM 57.7833 -172.0000 263° West 500 575 36,000  Level Anchorage Center
Sun 11:03:47 PM 57.7667 -172.2667 263° West 520 598 36,000  Level Anchorage Center
Sun 11:04:47 PM 57.7500 -172.5333 263° West 510 587 36,000  Level Anchorage Center
Sun 11:05:47 PM 57.7333 -172.8000 263° West 520 598 36,000  Level Anchorage Center
Sun 11:06:47 PM 57.7167 -173.0667 263° West 510 587 36,000  Level Anchorage Center
Sun 11:07:47 PM 57.6833 -173.3333 257° West 520 598 36,000  Level Anchorage Center
Sun 11:08:47 PM 57.6667 -173.6000 263° West 520 598 36,000  Level Anchorage Center
Sun 11:09:47 PM 57.6500 -173.8833 264° West 530 610 36,000  Level Anchorage Center
Sun 11:10:47 PM 57.6333 -174.1000 262° West 540 621 36,000  Level Anchorage Center
Sun 11:11:47 PM 57.6000 -174.3667 257° West 530 610 36,000  Level Anchorage Center
Sun 11:12:48 PM 57.5833 -174.6500 264° West 520 598 36,000  Level Anchorage Center
Sun 11:13:48 PM 57.5500 -174.9167 257° West 520 598 36,000  Level Anchorage Center
Sun 11:14:48 PM 57.5333 -175.1833 263° West 520 598 36,000  Level Anchorage Center
Sun 11:15:48 PM 57.5167 -175.4500 263° West 530 610 36,000  Level Anchorage Center
Sun 11:16:48 PM 57.4833 -175.7167 257° West 530 610 36,000  Level Anchorage Center
Sun 11:19:00 PM 57.4542 -176.0167 260° West  Level FlightAware Approximate
Sun 11:26:00 PM 57.2719 -177.7577 259° West  Level FlightAware Approximate
Sun 11:27:00 PM 57.2441 -178.0051 258° West  Level FlightAware Approximate
Sun 11:28:00 PM 57.2157 -178.2520 258° West  Level FlightAware Approximate
Sun 11:29:00 PM 57.1869 -178.4986 258° West  Level FlightAware Approximate
Sun 11:30:00 PM 57.1576 -178.7448 258° West  Level FlightAware Approximate
Sun 11:31:00 PM 57.1279 -178.9905 258° West  Level FlightAware Approximate
Sun 11:32:00 PM 57.0976 -179.2359 257° West  Level FlightAware Approximate
Sun 11:33:00 PM 57.0669 -179.4809 257° West  Level FlightAware Approximate
Sun 11:33:10 PM 57.0000 180.0000 249° West 513 590 36,000  Level Anchorage Center
Sun 11:34:00 PM 57.0359 -179.7238 257° West  Level FlightAware Approximate
Sun 11:34:37 PM 56.9167 179.5833 248° West 510 587 36,000  Level Anchorage Center
Sun 11:35:00 PM 57.0045 -179.9658 257° West  Level FlightAware Approximate
Sun 11:36:00 PM 56.9573 179.8017 249° West  Level FlightAware Approximate
Sun 11:37:00 PM 56.9071 179.5712 248° West  Level FlightAware Approximate
Sun 11:38:00 PM 56.8565 179.3413 248° West  Level FlightAware Approximate
Sun 11:39:00 PM 56.6738 178.5235 247° West 513 590 36,000  Level FlightAware Transoceanic
Sun 11:40:00 PM 56.6013 178.1860 247° West 510 587 36,000  Level FlightAware Transoceanic
Sun 11:41:00 PM 56.5472 177.9554 247° West 510 587 36,000  Level FlightAware Transoceanic
Sun 11:42:00 PM 56.4927 177.7254 247° West 510 587 36,000  Level FlightAware Transoceanic
Sun 11:43:00 PM 56.4378 177.4961 246° West 510 587 36,000  Level FlightAware Transoceanic
Sun 11:44:00 PM 56.3825 177.2675 246° West 510 587 36,000  Level FlightAware Transoceanic
Sun 11:45:00 PM 56.3267 177.0396 246° West 510 587 36,000  Level FlightAware Transoceanic
Sun 11:46:00 PM 56.2705 176.8123 246° West 510 587 36,000  Level FlightAware Transoceanic
Sun 11:46:40 PM 56.2167 176.6667 245° Southwest 540 621 36,000  Level Anchorage Center
Sun 11:47:00 PM 56.2139 176.5857 246° West 510 587 36,000  Level FlightAware Transoceanic
Sun 11:48:00 PM 56.1569 176.3597 246° West 510 587 36,000  Level FlightAware Transoceanic
Sun 11:48:35 PM 56.1000 176.2167 245° Southwest 510 587 36,000  Level Anchorage Center
Sun 11:49:00 PM 56.0995 176.1345 245° Southwest 510 587 36,000  Level FlightAware Transoceanic
Sun 11:49:40 PM 56.0333 175.9667 245° Southwest 520 598 36,000  Level Anchorage Center
Sun 11:50:00 PM 56.0417 175.9099 245° Southwest 510 587 36,000  Level FlightAware Transoceanic
Sun 11:50:40 PM 55.9833 175.7500 248° West 530 610 36,000  Level Anchorage Center
Sun 11:51:00 PM 55.9835 175.6859 245° Southwest 510 587 36,000  Level FlightAware Transoceanic
Sun 11:51:40 PM 55.9333 175.5500 246° West 510 587 36,000  Level Anchorage Center
Sun 11:52:40 PM 55.8667 175.3000 245° Southwest 500 575 36,000  Level Anchorage Center
Sun 11:53:40 PM 55.8000 175.0500 245° Southwest 510 587 36,000  Level Anchorage Center
Sun 11:54:40 PM 55.7500 174.8500 246° West 510 587 36,000  Level Anchorage Center
Sun 11:55:40 PM 55.6833 174.6167 243° Southwest 510 587 36,000  Level Anchorage Center
Sun 11:56:40 PM 55.6167 174.3667 245° Southwest 510 587 36,000  Level Anchorage Center
Sun 11:57:40 PM 55.5667 174.1667 246° West 510 587 36,000  Level Anchorage Center
Sun 11:58:40 PM 55.5000 173.9333 243° Southwest 500 575 36,000  Level Anchorage Center
Sun 11:59:40 PM 55.4333 173.7333 240° Southwest 510 587 36,000  Level Anchorage Center
Mon 12:00:41 AM 55.3667 173.4833 245° Southwest 510 587 36,000  Level Anchorage Center
Mon 12:01:41 AM 55.3167 173.3000 244° Southwest 510 587 36,000  Level Anchorage Center
Mon 12:02:40 AM 55.2500 173.0500 245° Southwest 510 587 36,000  Level Anchorage Center
Mon 12:03:41 AM 55.1667 172.8167 238° Southwest 510 587 36,000  Level Anchorage Center
Mon 12:04:41 AM 55.1167 172.6167 246° West 510 587 36,000  Level Anchorage Center
Mon 12:05:41 AM 55.0500 172.3833 244° Southwest 500 575 36,000  Level Anchorage Center
Mon 12:06:41 AM 54.9833 172.2000 238° Southwest 510 587 36,000  Level Anchorage Center
Mon 12:07:41 AM 54.9167 171.9667 244° Southwest 500 575 36,000  Level Anchorage Center
Mon 12:08:41 AM 54.8500 171.7833 238° Southwest 500 575 36,000  Level Anchorage Center
Mon 12:09:41 AM 54.7500 171.5667 231° Southwest 510 587 36,000  Level Anchorage Center
Mon 12:10:41 AM 54.6833 171.4000 235° Southwest 510 587 36,000  Level Anchorage Center
Mon 12:13:00 AM 54.5789 171.1504 234° Southwest  Level FlightAware Approximate
Mon 12:13:51 AM 54.4167 170.7500 234° Southwest 520 598 36,000  Level Anchorage Center
Mon 12:14:53 AM 54.3333 170.5833 229° Southwest 510 587 36,000  Level Anchorage Center
Mon 12:15:51 AM 54.2500 170.3833 235° Southwest 500 575 36,000  Level Anchorage Center
Mon 12:16:51 AM 54.1667 170.1667 237° Southwest 490 564 36,000  Level Anchorage Center
Mon 12:18:51 AM 53.9833 169.7833 231° Southwest 520 598 36,000  Level Anchorage Center
Mon 12:19:51 AM 53.9167 169.6333 233° Southwest 500 575 36,000  Level Anchorage Center
Mon 12:20:52 AM 53.8333 169.4167 237° Southwest 520 598 36,000  Level Anchorage Center
Mon 12:21:52 AM 53.7667 169.2667 233° Southwest 500 575 36,000  Level Anchorage Center
Mon 12:22:52 AM 53.6667 169.0333 234° Southwest 510 587 36,000  Level Anchorage Center
Mon 12:23:52 AM 53.6000 168.8167 243° Southwest 500 575 36,000  Level Anchorage Center
Mon 12:24:52 AM 53.5333 168.6333 239° Southwest 530 610 36,000  Level Anchorage Center
Mon 12:27:04 AM 53.4167 168.2333 239° Southwest 485 558 36,000  Level Anchorage Center
Mon 12:27:45 AM 53.3333 168.0500 240° Southwest 486 559 36,000  Level Anchorage Center
Mon 12:33:00 AM 52.9918 167.0528 239° Southwest 485 558 36,000  Level FlightAware Transoceanic
Mon 12:34:00 AM 52.9101 166.8696 239° Southwest 486 559 36,000  Level FlightAware Transoceanic
Mon 12:35:00 AM 52.8384 166.6751 239° Southwest 486 559 36,000  Level FlightAware Transoceanic
Mon 12:36:00 AM 52.7665 166.4813 238° Southwest 486 559 36,000  Level FlightAware Transoceanic
Mon 12:37:00 AM 52.6942 166.2881 238° Southwest 486 559 36,000  Level FlightAware Transoceanic
Mon 12:38:00 AM 52.6216 166.0955 238° Southwest 486 559 36,000  Level FlightAware Transoceanic
Mon 12:39:00 AM 52.5486 165.9036 238° Southwest 486 559 36,000  Level FlightAware Transoceanic
Mon 12:40:00 AM 52.4754 165.7123 238° Southwest 486 559 36,000  Level FlightAware Transoceanic
Mon 12:41:00 AM 52.4019 165.5217 238° Southwest 486 559 36,000  Level FlightAware Transoceanic
Mon 12:42:00 AM 52.3280 165.3317 237° Southwest 486 559 36,000  Level FlightAware Transoceanic
Mon 12:43:00 AM 52.2539 165.1423 237° Southwest 486 559 36,000  Level FlightAware Transoceanic
Mon 12:44:00 AM 52.1794 164.9536 237° Southwest 486 559 36,000  Level FlightAware Transoceanic
Mon 12:45:00 AM 52.1047 164.7654 237° Southwest 486 559 36,000  Level FlightAware Transoceanic
Mon 12:46:00 AM 52.0296 164.5780 237° Southwest 486 559 36,000  Level FlightAware Transoceanic
Mon 12:47:00 AM 51.9543 164.3911 237° Southwest 486 559 36,000  Level FlightAware Transoceanic
Mon 12:48:00 AM 51.8787 164.2049 237° Southwest 486 559 36,000  Level FlightAware Transoceanic
Mon 12:49:00 AM 51.8027 164.0193 236° Southwest 486 559 36,000  Level FlightAware Transoceanic
Mon 12:50:00 AM 51.7265 163.8343 236° Southwest 486 559 36,000  Level FlightAware Transoceanic
Mon 12:51:00 AM 51.6500 163.6500 236° Southwest 486 559 36,000  Level FlightAware Transoceanic
Mon 12:51:54 AM 51.6500 163.6500 236° Southwest 457 526 36,000  Level Anchorage Center
Mon 12:52:00 AM 51.5786 163.4780 236° Southwest 486 559 36,000  Level FlightAware Transoceanic
Mon 12:53:00 AM 51.5070 163.3065 236° Southwest 486 559 36,000  Level FlightAware Transoceanic
Mon 12:54:00 AM 51.4352 163.1356 236° Southwest 486 559 36,000  Level FlightAware Transoceanic
Mon 12:54:35 AM 51.4667 163.1833 236° Southwest 459 528 36,000  Level Anchorage Center
Mon 12:55:00 AM 51.3630 162.9652 236° Southwest 486 559 36,000  Level FlightAware Transoceanic
Mon 12:56:00 AM 51.2907 162.7953 236° Southwest 486 559 36,000  Level FlightAware Transoceanic
Mon 12:57:00 AM 51.2181 162.6260 236° Southwest 486 559 36,000  Level FlightAware Transoceanic
Mon 12:58:00 AM 51.2181 162.6260 236° Southwest 457 526 36,000  Level FlightAware Transoceanic
Mon 12:59:00 AM 51.1452 162.4572 235° Southwest 457 526 36,000  Level FlightAware Transoceanic
Mon 01:00:00 AM 51.0411 162.1981 235° Southwest 459 528 36,000  Level FlightAware Transoceanic
Mon 01:01:00 AM 50.9694 162.0357 235° Southwest 459 528 36,000  Level FlightAware Transoceanic
Mon 01:02:00 AM 50.8974 161.8738 235° Southwest 459 528 36,000  Level FlightAware Transoceanic
Mon 01:03:00 AM 50.8252 161.7123 235° Southwest 459 528 36,000  Level FlightAware Transoceanic
Mon 01:04:00 AM 50.7528 161.5514 235° Southwest 459 528 36,000  Level FlightAware Transoceanic
Mon 01:05:00 AM 50.6802 161.3910 234° Southwest 459 528 36,000  Level FlightAware Transoceanic
Mon 01:06:00 AM 50.6074 161.2310 234° Southwest 459 528 36,000  Level FlightAware Transoceanic
Mon 01:07:00 AM 50.5343 161.0716 234° Southwest 459 528 36,000  Level FlightAware Transoceanic
Mon 01:08:00 AM 50.4611 160.9126 234° Southwest 459 528 36,000  Level FlightAware Transoceanic
Mon 01:09:00 AM 50.3876 160.7542 234° Southwest 459 528 36,000  Level FlightAware Transoceanic
Mon 01:10:00 AM 50.3139 160.5962 234° Southwest 459 528 36,000  Level FlightAware Transoceanic
Mon 01:11:00 AM 50.2399 160.4387 234° Southwest 459 528 36,000  Level FlightAware Transoceanic
Mon 01:12:00 AM 50.1658 160.2818 234° Southwest 459 528 36,000  Level FlightAware Transoceanic
Mon 01:13:00 AM 50.0915 160.1252 233° Southwest 459 528 36,000  Level FlightAware Transoceanic
Mon 01:14:00 AM 50.0169 159.9692 233° Southwest 459 528 36,000  Level FlightAware Transoceanic
Mon 01:15:00 AM 49.9422 159.8137 233° Southwest 459 528 36,000  Level FlightAware Transoceanic
Mon 01:16:00 AM 49.8672 159.6586 233° Southwest 459 528 36,000  Level FlightAware Transoceanic
Mon 01:17:00 AM 49.7920 159.5041 233° Southwest 459 528 36,000  Level FlightAware Transoceanic
Mon 01:18:00 AM 49.7167 159.3500 233° Southwest 459 528 36,000  Level FlightAware Transoceanic
Mon 01:19:00 AM 49.6412 159.1959 233° Southwest 459 528 36,000  Level FlightAware Transoceanic
Mon 01:20:00 AM 49.5655 159.0422 233° Southwest 459 528 36,000  Level FlightAware Transoceanic
Mon 01:21:00 AM 49.4896 158.8891 233° Southwest 459 528 36,000  Level FlightAware Transoceanic
Mon 01:22:00 AM 49.4135 158.7364 232° Southwest 459 528 36,000  Level FlightAware Transoceanic
Mon 01:23:00 AM 49.3372 158.5841 232° Southwest 459 528 36,000  Level FlightAware Transoceanic
Mon 01:24:00 AM 49.2607 158.4324 232° Southwest 459 528 36,000  Level FlightAware Transoceanic
Mon 01:25:00 AM 49.1839 158.2811 232° Southwest 459 528 36,000  Level FlightAware Transoceanic
Mon 01:26:00 AM 49.1070 158.1303 232° Southwest 459 528 36,000  Level FlightAware Transoceanic
Mon 01:27:00 AM 49.0299 157.9799 232° Southwest 459 528 36,000  Level FlightAware Transoceanic
Mon 01:28:00 AM 48.9527 157.8301 232° Southwest 459 528 36,000  Level FlightAware Transoceanic
Mon 01:29:00 AM 48.8752 157.6806 232° Southwest 459 528 36,000  Level FlightAware Transoceanic
Mon 01:30:00 AM 48.7975 157.5317 232° Southwest 459 528 36,000  Level FlightAware Transoceanic
Mon 01:31:00 AM 48.7196 157.3832 231° Southwest 459 528 36,000  Level FlightAware Transoceanic
Mon 01:32:00 AM 48.6416 157.2352 231° Southwest 459 528 36,000  Level FlightAware Transoceanic
Mon 01:33:00 AM 48.5633 157.0876 231° Southwest 459 528 36,000  Level FlightAware Transoceanic
Mon 01:34:00 AM 48.4849 156.9405 231° Southwest 459 528 36,000  Level FlightAware Transoceanic
Mon 01:35:00 AM 48.4063 156.7938 231° Southwest 459 528 36,000  Level FlightAware Transoceanic
Mon 01:36:00 AM 48.3274 156.6476 231° Southwest 459 528 36,000  Level FlightAware Transoceanic
Mon 01:37:00 AM 48.2485 156.5019 231° Southwest 459 528 36,000  Level FlightAware Transoceanic
Mon 01:38:00 AM 48.1693 156.3566 231° Southwest 459 528 36,000  Level FlightAware Transoceanic
Mon 01:39:00 AM 48.0899 156.2117 231° Southwest 459 528 36,000  Level FlightAware Transoceanic
Mon 01:40:00 AM 48.0104 156.0673 230° Southwest 459 528 36,000  Level FlightAware Transoceanic
Mon 01:41:00 AM 47.9307 155.9233 230° Southwest 459 528 36,000  Level FlightAware Transoceanic
Mon 01:42:00 AM 47.8508 155.7798 230° Southwest 459 528 36,000  Level FlightAware Transoceanic
Mon 01:43:00 AM 47.7707 155.6367 230° Southwest 459 528 36,000  Level FlightAware Transoceanic
Mon 01:44:00 AM 47.6904 155.4941 230° Southwest 459 528 36,000  Level FlightAware Transoceanic
Mon 01:45:00 AM 47.6100 155.3519 230° Southwest 459 528 36,000  Level FlightAware Transoceanic
Mon 01:46:00 AM 47.5294 155.2101 230° Southwest 459 528 36,000  Level FlightAware Transoceanic
Mon 01:47:00 AM 47.4486 155.0688 230° Southwest 459 528 36,000  Level FlightAware Transoceanic
Mon 01:48:00 AM 47.3676 154.9279 230° Southwest 459 528 36,000  Level FlightAware Transoceanic
Mon 01:49:00 AM 47.2865 154.7874 230° Southwest 459 528 36,000  Level FlightAware Transoceanic
Mon 01:50:00 AM 47.2052 154.6474 229° Southwest 459 528 36,000  Level FlightAware Transoceanic
Mon 01:51:00 AM 47.1238 154.5078 229° Southwest 459 528 36,000  Level FlightAware Transoceanic
Mon 01:52:00 AM 47.0421 154.3686 229° Southwest 459 528 36,000  Level FlightAware Transoceanic
Mon 01:53:00 AM 46.9603 154.2299 229° Southwest 459 528 36,000  Level FlightAware Transoceanic
Mon 01:54:00 AM 46.8783 154.0915 229° Southwest 459 528 36,000  Level FlightAware Transoceanic
Mon 01:55:00 AM 46.7962 153.9536 229° Southwest 459 528 36,000  Level FlightAware Transoceanic
Mon 01:56:00 AM 46.7139 153.8161 229° Southwest 459 528 36,000  Level FlightAware Transoceanic
Mon 01:57:00 AM 46.6314 153.6791 229° Southwest 459 528 36,000  Level FlightAware Transoceanic
Mon 01:58:00 AM 46.5488 153.5424 229° Southwest 459 528 36,000  Level FlightAware Transoceanic
Mon 01:59:00 AM 46.4660 153.4062 229° Southwest 459 528 36,000  Level FlightAware Transoceanic
Mon 02:00:00 AM 46.3831 153.2704 228° Southwest 459 528 36,000  Level FlightAware Transoceanic
Mon 02:01:00 AM 46.2999 153.1350 228° Southwest 459 528 36,000 29 Level FlightAware Transoceanic
Mon 02:02:00 AM 46.2101 152.9894 228° Southwest  Level FlightAware Approximate
Mon 02:03:00 AM 46.2035 152.9790 228° Southwest  Level FlightAware Approximate
Mon 02:04:00 AM 46.1130 152.8346 228° Southwest  Level FlightAware Approximate
Mon 02:05:00 AM 46.0222 152.6908 228° Southwest  Level FlightAware Approximate
Mon 02:06:00 AM 45.9313 152.5474 228° Southwest  Level FlightAware Approximate
Mon 02:07:00 AM 45.8402 152.4044 228° Southwest  Level FlightAware Approximate
Mon 02:08:00 AM 45.7490 152.2620 227° Southwest  Level FlightAware Approximate
Mon 02:09:00 AM 45.6575 152.1200 227° Southwest  Level FlightAware Approximate
Mon 02:10:00 AM 45.5659 151.9785 227° Southwest  Level FlightAware Approximate
Mon 02:11:00 AM 45.4741 151.8374 227° Southwest  Level FlightAware Approximate
Mon 02:12:00 AM 45.3821 151.6968 227° Southwest  Level FlightAware Approximate
Mon 02:13:00 AM 45.2900 151.5566 227° Southwest  Level FlightAware Approximate
Mon 02:14:00 AM 45.1977 151.4169 227° Southwest  Level FlightAware Approximate
Mon 02:15:00 AM 45.1052 151.2777 227° Southwest  Level FlightAware Approximate
Mon 02:16:00 AM 45.0127 151.1391 227° Southwest  Level FlightAware Approximate
Mon 02:17:00 AM 44.9201 151.0011 227° Southwest  Level FlightAware Approximate
Mon 02:18:00 AM 44.8276 150.8640 226° Southwest  Level FlightAware Approximate
Mon 02:19:00 AM 44.7350 150.7273 226° Southwest  Level FlightAware Approximate
Mon 02:20:00 AM 44.6422 150.5911 226° Southwest  Level FlightAware Approximate
Mon 02:21:00 AM 44.5493 150.4553 226° Southwest  Level FlightAware Approximate
Mon 02:22:00 AM 44.4562 150.3199 226° Southwest  Level FlightAware Approximate
Mon 02:23:00 AM 44.3629 150.1850 226° Southwest  Level FlightAware Approximate
Mon 02:24:00 AM 44.2695 150.0505 226° Southwest  Level FlightAware Approximate
Mon 02:25:00 AM 44.1759 149.9164 226° Southwest  Level FlightAware Approximate
Mon 02:26:00 AM 44.0822 149.7827 226° Southwest  Level FlightAware Approximate
Mon 02:27:00 AM 43.9883 149.6495 226° Southwest  Level FlightAware Approximate
Mon 02:28:00 AM 43.8943 149.5167 226° Southwest  Level FlightAware Approximate
Mon 02:29:00 AM 43.8001 149.3843 225° Southwest  Level FlightAware Approximate
Mon 02:30:00 AM 43.7058 149.2523 225° Southwest  Level FlightAware Approximate
Mon 02:31:00 AM 43.6113 149.1208 225° Southwest  Level FlightAware Approximate
Mon 02:32:00 AM 43.5166 148.9896 225° Southwest  Level FlightAware Approximate
Mon 02:33:00 AM 43.4218 148.8589 225° Southwest  Level FlightAware Approximate
Mon 02:34:00 AM 43.3268 148.7287 225° Southwest  Level FlightAware Approximate
Mon 02:34:51 AM 43.4990 148.9670 225° Southwest 437 503 37,000  Level FlightAware ADS-B
Mon 02:35:00 AM 43.2317 148.5988 225° Southwest  Level FlightAware Approximate
Mon 02:35:35 AM 43.4340 148.8780 225° Southwest 436 502 37,000  Level FlightAware ADS-B
Mon 02:36:20 AM 43.3680 148.7860 225° Southwest 436 502 37,000  Level FlightAware ADS-B
Mon 02:37:00 AM 43.3120 148.7090 225° Southwest 436 502 37,000  Level FlightAware ADS-B
Mon 02:37:45 AM 43.2460 148.6200 225° Southwest 436 502 37,000  Level FlightAware ADS-B
Mon 02:38:25 AM 43.1880 148.5410 225° Southwest 437 503 37,000  Level FlightAware ADS-B
Mon 02:39:05 AM 43.1300 148.4620 225° Southwest 437 503 37,000  Level FlightAware ADS-B
Mon 02:39:46 AM 43.0740 148.3870 224° Southwest 437 503 37,000  Level FlightAware ADS-B
Mon 02:40:30 AM 43.0060 148.2950 225° Southwest 437 503 37,000  Level FlightAware ADS-B
Mon 02:41:10 AM 42.9490 148.2180 225° Southwest 437 503 37,000  Level FlightAware ADS-B
Mon 02:41:55 AM 42.8830 148.1280 225° Southwest 437 503 37,000  Level FlightAware ADS-B
Mon 02:42:35 AM 42.8250 148.0510 224° Southwest 437 503 37,000  Level FlightAware ADS-B
Mon 02:43:20 AM 42.7570 147.9620 224° Southwest 437 503 37,000  Level FlightAware ADS-B
Mon 02:44:00 AM 42.6990 147.8830 225° Southwest 437 503 37,000  Level FlightAware ADS-B
Mon 02:44:45 AM 42.6330 147.7960 224° Southwest 437 503 37,000  Level FlightAware ADS-B
Mon 02:45:25 AM 42.5740 147.7190 224° Southwest 437 503 37,000  Level FlightAware ADS-B
Mon 02:46:05 AM 42.5160 147.6410 225° Southwest 436 502 37,000  Level FlightAware ADS-B
Mon 02:46:50 AM 42.4500 147.5540 224° Southwest 437 503 37,000  Level FlightAware ADS-B
Mon 02:47:30 AM 42.3920 147.4770 224° Southwest 437 503 37,000  Level FlightAware ADS-B
Mon 02:48:11 AM 42.3340 147.4020 224° Southwest 437 503 37,000  Level FlightAware ADS-B
Mon 02:48:45 AM 42.2820 147.3350 224° Southwest 437 503 37,000  Level FlightAware ADS-B
Mon 02:49:25 AM 42.2230 147.2560 225° Southwest 437 503 37,000  Level FlightAware ADS-B
Mon 02:50:05 AM 42.1630 147.1790 224° Southwest 444 511 37,000  Level FlightAware ADS-B
Mon 02:50:46 AM 42.1040 147.1030 224° Southwest 445 512 37,000  Level FlightAware ADS-B
Mon 02:51:30 AM 42.0370 147.0160 224° Southwest 446 513 37,000  Level FlightAware ADS-B
Mon 02:52:15 AM 41.9700 146.9300 224° Southwest 447 514 37,000  Level FlightAware ADS-B
Mon 02:52:55 AM 41.9100 146.8530 224° Southwest 447 514 37,000  Level FlightAware ADS-B
Mon 02:53:35 AM 41.8520 146.7780 224° Southwest 446 513 37,000  Level FlightAware ADS-B
Mon 02:54:15 AM 41.7910 146.7000 224° Southwest 446 513 37,000  Level FlightAware ADS-B
Mon 02:54:55 AM 41.7310 146.6230 224° Southwest 446 513 37,000  Level FlightAware ADS-B
Mon 02:55:40 AM 41.6640 146.5380 223° Southwest 446 513 37,000  Level FlightAware ADS-B
Mon 02:56:25 AM 41.5970 146.4520 224° Southwest 445 512 37,000  Level FlightAware ADS-B
Mon 02:57:05 AM 41.5370 146.3770 223° Southwest 444 511 37,000  Level FlightAware ADS-B
Mon 02:57:50 AM 41.4700 146.2920 224° Southwest 444 511 37,000  Level FlightAware ADS-B
Mon 02:58:30 AM 41.4110 146.2170 224° Southwest 445 512 37,000  Level FlightAware ADS-B
Mon 02:59:15 AM 41.3430 146.1320 223° Southwest 445 512 37,000 225 Level FlightAware ADS-B
Mon 02:59:50 AM 41.2920 146.0680 223° Southwest 447 514 37,300 353 Climbing FlightAware ADS-B
Mon 03:00:40 AM 41.2250 145.9830 224° Southwest 447 514 37,500 1,172 Climbing FlightAware ADS-B
Mon 03:01:17 AM 41.1610 145.9030 223° Southwest 439 505 39,000 1,098 Climbing FlightAware ADS-B
Mon 03:02:02 AM 41.0940 145.8200 223° Southwest 439 505 39,000  Level FlightAware ADS-B
Mon 03:02:38 AM 41.0420 145.7560 223° Southwest 438 504 39,000  Level FlightAware ADS-B
Mon 03:03:22 AM 40.9750 145.6740 223° Southwest 436 502 39,000  Level FlightAware ADS-B
Mon 03:04:08 AM 40.9090 145.5930 223° Southwest 429 494 39,000  Level FlightAware ADS-B
Mon 03:04:47 AM 40.8500 145.5200 223° Southwest 429 494 39,000  Level FlightAware ADS-B
Mon 03:05:32 AM 40.7840 145.4390 223° Southwest 435 501 39,000  Level FlightAware ADS-B
Mon 03:06:13 AM 40.7310 145.3740 223° Southwest 435 501 39,000  Level FlightAware ADS-B
Mon 03:06:57 AM 40.6640 145.2930 223° Southwest 435 501 39,000  Level FlightAware ADS-B
Mon 03:07:37 AM 40.6000 145.2160 222° Southwest 435 501 39,000  Level FlightAware ADS-B
Mon 03:08:30 AM 40.5290 145.1280 223° Southwest 435 501 39,000  Level FlightAware ADS-B
Mon 03:09:30 AM 40.4520 145.0380 222° Southwest 435 501 39,000  Level FlightAware ADS-B
Mon 03:10:06 AM 40.4070 144.9840 222° Southwest 435 501 39,000  Level FlightAware ADS-B
Mon 03:10:52 AM 40.3120 144.8670 223° Southwest 438 504 39,000  Level FlightAware ADS-B
Mon 03:11:46 AM 40.2510 144.7940 222° Southwest 438 504 39,000  Level FlightAware ADS-B
Mon 03:12:42 AM 40.1470 144.6700 222° Southwest 438 504 39,000  Level FlightAware ADS-B
Mon 03:13:52 AM 40.0460 144.5500 222° Southwest 436 502 39,000  Level FlightAware ADS-B
Mon 03:14:33 AM 39.9810 144.4730 222° Southwest 436 502 39,000  Level FlightAware ADS-B
Mon 03:15:20 AM 39.9150 144.3950 222° Southwest 436 502 39,000  Level FlightAware ADS-B
Mon 03:15:55 AM 39.8700 144.3420 222° Southwest 436 502 39,000  Level FlightAware ADS-B
Mon 03:16:43 AM 39.8090 144.2710 222° Southwest 436 502 39,000  Level FlightAware ADS-B
Mon 03:17:19 AM 39.7630 144.2170 222° Southwest 436 502 39,000  Level FlightAware ADS-B
Mon 03:18:08 AM 39.7010 144.1440 222° Southwest 436 502 39,000  Level FlightAware ADS-B
Mon 03:18:44 AM 39.6550 144.0900 222° Southwest 436 502 39,000  Level FlightAware ADS-B
Mon 03:19:32 AM 39.5940 144.0190 222° Southwest 436 502 39,000  Level FlightAware ADS-B
Mon 03:20:10 AM 39.5450 143.9620 222° Southwest 436 502 39,000  Level FlightAware ADS-B
Mon 03:20:58 AM 39.4840 143.8910 222° Southwest 436 502 39,000  Level FlightAware ADS-B
Mon 03:21:34 AM 39.4380 143.8370 222° Southwest 436 502 39,000  Level FlightAware ADS-B
Mon 03:22:20 AM 39.2670 143.6410 222° Southwest 454 522 39,000  Level FlightAware ADS-B
Mon 03:23:14 AM 39.1930 143.5560 222° Southwest 454 522 39,000  Level FlightAware ADS-B
Mon 03:23:55 AM 39.1140 143.4640 222° Southwest 456 525 39,000  Level FlightAware ADS-B
Mon 03:24:36 AM 39.0570 143.3990 222° Southwest 456 525 39,000  Level FlightAware ADS-B
Mon 03:25:17 AM 38.9880 143.3220 221° Southwest 457 526 39,000  Level FlightAware ADS-B
Mon 03:26:00 AM 38.9150 143.2470 219° Southwest 452 520 39,000  Level FlightAware ADS-B
Mon 03:26:46 AM 38.8190 143.2160 194° South 460 529 39,000  Level FlightAware ADS-B
Mon 03:27:22 AM 38.7430 143.2050 186° South 471 542 39,000  Level FlightAware ADS-B
Mon 03:28:25 AM 38.6260 143.1890 186° South 465 535 39,000  Level FlightAware ADS-B
Mon 03:29:20 AM 38.4890 143.1700 186° South 475 547 39,000  Level FlightAware ADS-B
Mon 03:29:58 AM 38.3980 143.1580 186° South 476 548 39,000  Level FlightAware ADS-B
Mon 03:30:38 AM 38.3150 143.1460 186° South 478 550 39,000  Level FlightAware ADS-B
Mon 03:31:19 AM 38.2290 143.1340 186° South 480 552 39,000  Level FlightAware ADS-B
Mon 03:32:15 AM 38.1100 143.1180 186° South 480 552 39,000  Level FlightAware ADS-B
Mon 03:33:01 AM 38.0230 143.1060 186° South 480 552 39,000  Level FlightAware ADS-B
Mon 03:33:37 AM 37.9560 143.0970 186° South 480 552 39,000  Level FlightAware ADS-B
Mon 03:34:29 AM 37.8030 143.0750 186° South 489 563 39,000  Level FlightAware ADS-B
Mon 03:35:09 AM 37.7040 143.0620 186° South 489 563 39,000  Level FlightAware ADS-B
Mon 03:35:44 AM 37.6270 143.0510 186° South 489 563 39,000  Level FlightAware ADS-B
Mon 03:36:29 AM 37.5230 143.0380 186° South 489 563 39,000  Level FlightAware ADS-B
Mon 03:37:15 AM 37.4220 143.0240 186° South 488 562 39,000  Level FlightAware ADS-B
Mon 03:37:54 AM 37.3330 143.0050 190° South 482 555 39,000  Level FlightAware ADS-B
Mon 03:38:39 AM 37.2490 142.9660 200° South 477 549 39,000  Level FlightAware ADS-B
Mon 03:39:19 AM 37.1600 142.9210 202° Southwest 478 550 39,000  Level FlightAware ADS-B
Mon 03:39:55 AM 37.0920 142.8860 202° Southwest 478 550 39,000  Level FlightAware ADS-B
Mon 03:40:44 AM 36.9920 142.8360 202° Southwest 479 551 39,000  Level FlightAware ADS-B
Mon 03:41:24 AM 36.9090 142.7940 202° Southwest 478 550 39,000  Level FlightAware ADS-B
Mon 03:42:04 AM 36.8270 142.7530 202° Southwest 479 551 39,000  Level FlightAware ADS-B
Mon 03:42:45 AM 36.7520 142.7160 202° Southwest 480 552 39,000  Level FlightAware ADS-B
Mon 03:43:45 AM 36.6320 142.6550 202° Southwest 482 555 39,000 -353 Level FlightAware ADS-B
Mon 03:44:44 AM 36.4930 142.5700 206° Southwest 489 563 38,300 -1,340 Descending FlightAware ADS-B
Mon 03:45:19 AM 36.4270 142.5230 210° Southwest 488 562 36,900 -2,337 Descending FlightAware ADS-B
Mon 03:46:19 AM 36.3180 142.4480 209° Southwest 483 556 34,600 -2,369 Descending FlightAware ADS-B
Mon 03:47:15 AM 36.2070 142.3700 210° Southwest 32,300 -2,412 Descending FlightAware ADS-B
Mon 03:47:56 AM 36.1250 142.3140 209° Southwest 471 542 30,700 -2,286 Descending FlightAware ADS-B
Mon 03:48:39 AM 36.0480 142.2610 209° Southwest 464 534 29,100 -2,357 Descending FlightAware ADS-B
Mon 03:49:20 AM 35.9660 142.2050 209° Southwest 455 524 27,400 -2,268 Descending FlightAware ADS-B
Mon 03:50:01 AM 35.9020 142.1610 209° Southwest 448 516 26,000 -2,427 Descending FlightAware ADS-B
Mon 03:50:49 AM 35.8100 142.0950 210° Southwest 435 501 23,800 -2,188 Descending FlightAware ADS-B
Mon 03:51:37 AM 35.7640 141.9990 239° Southwest 396 456 22,500 -1,579 Descending FlightAware ADS-B
Mon 03:52:24 AM 35.7670 141.9020 272° West 375 432 21,300 -2,114 Descending FlightAware ADS-B
Mon 03:53:05 AM 35.7750 141.8110 276° West 384 442 19,400 -2,400 Descending FlightAware ADS-B
Mon 03:53:49 AM 35.7830 141.7140 276° West 380 437 17,900 -2,023 Descending FlightAware ADS-B
Mon 03:54:31 AM 35.7900 141.6280 276° West 375 432 16,500 -2,071 Descending FlightAware ADS-B
Mon 03:55:13 AM 35.7980 141.5350 276° West 370 426 15,000 -1,929 Descending FlightAware ADS-B
Mon 03:55:55 AM 35.8040 141.4580 276° West 368 423 13,800 -1,829 Descending FlightAware ADS-B
Mon 03:56:35 AM 35.8110 141.3690 276° West 364 419 12,500 -1,778 Descending FlightAware ADS-B
Mon 03:57:16 AM 35.8170 141.2900 275° West 358 412 11,400 -1,379 Descending FlightAware ADS-B
Mon 03:58:02 AM 35.8240 141.1990 275° West 336 387 10,500 -643 Descending FlightAware ADS-B
Mon 03:58:40 AM 35.8290 141.1330 275° West 294 338 10,500 -525 Level FlightAware ADS-B
Mon 03:59:22 AM 35.8350 141.0590 276° West 278 320 9,800 -904 Descending FlightAware ADS-B
Mon 03:59:53 AM 35.8380 141.0150 275° West 274 315 9,400 -492 Descending FlightAware ADS-B
Mon 04:00:23 AM 35.8420 140.9660 276° West 270 311 9,300 -103 Descending FlightAware ADS-B
Mon 04:00:51 AM 35.8450 140.9200 275° West 271 312 9,300  Level FlightAware ADS-B
Mon 04:01:15 AM 35.8480 140.8840 276° West 273 314 9,300  Level FlightAware ADS-B
Mon 04:01:43 AM 35.8520 140.8410 277° West 275 316 9,300  Level FlightAware ADS-B
Mon 04:02:11 AM 35.8620 140.7990 286° West 272 313 9,300  Level FlightAware ADS-B
Mon 04:03:16 AM 35.8960 140.7090 295° West 272 313 9,300 -222 Level FlightAware ADS-B
Mon 04:03:32 AM 35.9050 140.6840 294° West 267 307 9,000 -1,250 Descending FlightAware ADS-B
Mon 04:04:04 AM 35.9210 140.6390 294° West 262 302 8,300 -1,320 Descending FlightAware ADS-B
Mon 04:04:22 AM 35.9300 140.6150 295° West 263 303 7,900 -1,286 Descending FlightAware ADS-B
Mon 04:04:46 AM 35.9400 140.5810 290° West 261 300 7,400 -1,309 Descending FlightAware ADS-B
Mon 04:05:17 AM 35.9540 140.5400 293° West 261 300 6,700 -957 Descending FlightAware ADS-B
Mon 04:05:55 AM 35.9710 140.4900 293° West 266 306 6,300 -500 Descending FlightAware ADS-B
Mon 04:06:05 AM 35.9770 140.4730 294° West 263 303 6,300 -450 Level FlightAware ADS-B
Mon 04:06:35 AM 35.9900 140.4350 293° West 260 299 6,000 -900 Descending FlightAware ADS-B
Mon 04:07:05 AM 36.0050 140.3890 292° West 253 291 5,400 -600 Descending FlightAware ADS-B
Mon 04:07:35 AM 36.0160 140.3540 291° West 231 266 5,400 -207 Level FlightAware ADS-B
Mon 04:08:03 AM 36.0090 140.3210 255° West 226 260 5,200 -840 Descending FlightAware ADS-B
Mon 04:08:25 AM 35.9940 140.2980 231° Southwest 223 257 4,700 -1,538 Descending FlightAware ADS-B
Mon 04:08:42 AM 35.9810 140.2810 227° Southwest 221 254 4,200 -1,435 Descending FlightAware ADS-B
Mon 04:09:11 AM 35.9590 140.2630 214° Southwest 218 251 3,600 -1,143 Descending FlightAware ADS-B
Mon 04:09:24 AM 35.9500 140.2580 204° Southwest 215 247 3,400 -652 Descending FlightAware ADS-B
Mon 04:09:57 AM 35.9130 140.2680 168° South 214 246 3,100 -400 Descending FlightAware ADS-B
Mon 04:10:24 AM 35.8900 140.2840 151° Southeast 189 217 3,000 -324 Descending FlightAware ADS-B
Mon 04:10:34 AM 35.8820 140.2900 149° Southeast 191 220 2,900 -903 Descending FlightAware ADS-B
Mon 04:11:57 AM 35.8260 140.3300 150° Southeast 168 193 1,600 -750 Descending FlightAware ADS-B
Mon 04:12:42 AM 35.8000 140.3500 148° Southeast 152 175 1,300 -400 Descending FlightAware ADS-B
Mon 04:15:00 AM 35.7647 140.3864 253° West  Level Estimated

Login

Don't have an account? Register now (free) for customized features, flight alerts, and more!